West Yellowstone, MT

1:44 PM MST on November 25, 2014 (GMT -0700)
Lower Beartrap | Change Station
CLOSE
Current Station
Personal Weather Station
Location: West Yellowstone, MT
Elevation: 6565 ft
Nearby Weather Stations
Active Advisory: Winter Storm Warning

Elev 6565 ft 44.79 °N, 111.14 °W | Updated 14 minutes ago

Overcast
Overcast
29.1 °F
Feels Like 25 °F
N
3.8
Wind Variable Wind from North
Gusts 5.4 mph

Today
High -- | Low -- °F
--% Chance of Precip.
Yesterday
High -- | Low -- °F
Precip. -- in
7:34 AM 4:48 PM
Waxing Crescent, 13% visible
Pressure 30.07 in
Visibility -9999.0 miles
Clouds
Windchill 25 °F
Dew Point 27 °F
Humidity 92%
Rainfall 0.00 in
Snow Depth Not available.
UV Not available.
Pollen .10 out of 12
Air Quality Not available.
Flu Activity Not available.
METAR KP60 251956Z AUTO VRB05KT M03/M04 A3000 RMK AO1 SLP183 P0003 T10281044 $

More Conditions Fewer Conditions

Pressure 30.07 in
Visibility -9999.0 miles
Clouds
Windchill 25 °F
Dew Point 27 °F
Humidity 92%
Rainfall 0.00 in
Snow Depth Not available.
UV Not available.
Pollen .10 out of 12
Air Quality Not available.
Flu Activity Not available.
METAR KP60 251956Z AUTO VRB05KT M03/M04 A3000 RMK AO1 SLP183 P0003 T10281044 $

More Conditions Fewer Conditions

10-Day Weather Forecast

Almanac

Astronomy

Nov. 25, 2014 Rise Set
Actual Time
Civil Twilight
Nautical Twilight
Astronomical Twilight
Moon
Length of Visible Light
Length of Day
Tomorrow will be .
, % of the Moon is Illuminated

Today's Extremes

State Highs State Lows

Community

WunderPhotos

Upload Photos

1,773,585 photos uploaded!

WunderBlogs® & News

Nearby

Air Quality

  Air Quality AQ Index Pollutant
Not available.

Snow Depth

Station Depth Elevation

Earthquake Activity

City Distance Mag. Time & Date
Minimum magnitude displayed is 2.5.

Coastal Water Temperatures

Place Temperature

Nearby Weather Stations